createdAt,value
2018-07-11T00:01:21.758Z,6.28
2018-07-11T00:03:53.073Z,7.85
2018-07-11T00:06:23.777Z,7.10
2018-07-11T00:08:52.364Z,6.53
2018-07-11T00:11:20.845Z,9.58
2018-07-11T00:13:49.469Z,7.78
2018-07-11T00:16:18.125Z,6.70
2018-07-11T00:18:46.902Z,7.67
2018-07-11T00:21:15.894Z,9.78
2018-07-11T00:23:44.789Z,10.30
2018-07-11T00:26:13.373Z,10.58
2018-07-11T00:28:42.066Z,7.77
2018-07-11T00:31:10.736Z,6.67
2018-07-11T00:33:39.010Z,9.10
2018-07-11T00:36:07.378Z,8.38
2018-07-11T00:38:36.497Z,8.88
2018-07-11T00:41:04.851Z,9.60
2018-07-11T00:43:34.454Z,14.50
2018-07-11T00:46:03.277Z,11.35
2018-07-11T00:48:32.174Z,11.60
2018-07-11T00:51:01.608Z,11.75
2018-07-11T00:53:31.027Z,8.50
2018-07-11T00:55:59.558Z,11.65
2018-07-11T00:58:29.754Z,12.47
2018-07-11T01:01:05.594Z,11.10
2018-07-11T01:03:36.397Z,15.78
2018-07-11T01:06:05.062Z,11.67
2018-07-11T01:08:36.360Z,11.75
2018-07-11T01:11:19.737Z,10.10
2018-07-11T01:13:49.182Z,10.85
2018-07-11T01:16:18.938Z,16.37
2018-07-11T01:18:52.733Z,12.78
2018-07-11T01:21:20.773Z,15.65
2018-07-11T01:23:49.636Z,14.20
2018-07-11T01:26:18.515Z,13.22
2018-07-11T01:28:46.875Z,15.03
2018-07-11T01:31:15.082Z,17.32
2018-07-11T01:33:43.665Z,12.90
2018-07-11T01:36:11.696Z,14.60
2018-07-11T01:38:40.593Z,11.90
2018-07-11T01:41:08.752Z,14.40
2018-07-11T01:43:37.514Z,12.03
2018-07-11T01:46:05.925Z,13.23
2018-07-11T01:48:34.339Z,16.27
2018-07-11T01:51:02.573Z,16.12
2018-07-11T01:53:31.008Z,14.13
2018-07-11T01:55:59.276Z,17.37
2018-07-11T01:58:27.657Z,18.15
2018-07-11T02:00:56.782Z,13.10
2018-07-11T02:03:25.126Z,13.50
2018-07-11T02:05:53.597Z,19.50
2018-07-11T02:08:22.944Z,14.10
2018-07-11T02:10:51.585Z,11.88
2018-07-11T02:13:19.741Z,19.40
2018-07-11T02:15:48.749Z,15.83
2018-07-11T02:18:19.107Z,16.40
2018-07-11T02:20:47.562Z,14.68
2018-07-11T02:23:15.697Z,15.88
2018-07-11T02:25:43.914Z,16.95
2018-07-11T02:28:12.357Z,12.63
2018-07-11T02:30:40.857Z,13.32
2018-07-11T02:33:09.367Z,13.17
2018-07-11T02:35:38.171Z,12.55
2018-07-11T02:38:07.040Z,12.17
2018-07-11T02:40:35.130Z,12.85
2018-07-11T02:43:03.258Z,11.80
2018-07-11T02:45:32.088Z,16.23
2018-07-11T02:48:00.447Z,12.55
2018-07-11T02:50:28.858Z,11.25
2018-07-11T02:52:57.925Z,11.77
2018-07-11T02:55:26.172Z,13.33
2018-07-11T02:57:54.410Z,12.68
2018-07-11T03:00:23.666Z,11.68
2018-07-11T03:02:51.925Z,15.10
2018-07-11T03:05:20.237Z,16.17
2018-07-11T03:07:48.787Z,12.40
2018-07-11T03:10:17.493Z,11.97
2018-07-11T03:12:45.534Z,15.70
2018-07-11T03:15:13.844Z,18.57
2018-07-11T03:17:42.259Z,19.00
2018-07-11T03:20:10.710Z,19.50
2018-07-11T03:22:39.731Z,21.45
2018-07-11T03:25:07.797Z,18.70
2018-07-11T03:27:36.272Z,16.73
2018-07-11T03:30:04.456Z,9.18
2018-07-11T03:32:32.857Z,11.30
2018-07-11T03:35:01.368Z,10.10
2018-07-11T03:37:29.982Z,7.65
2018-07-11T03:39:58.461Z,7.87
2018-07-11T03:42:26.737Z,7.00
2018-07-11T03:44:55.098Z,6.90
2018-07-11T03:47:23.785Z,6.80
2018-07-11T03:49:52.002Z,6.78
2018-07-11T03:52:20.536Z,7.03
2018-07-11T03:54:49.155Z,7.62
2018-07-11T03:57:17.997Z,6.22
2018-07-11T03:59:46.514Z,8.55
2018-07-11T04:02:14.670Z,7.72
2018-07-11T04:04:42.972Z,6.40
2018-07-11T04:07:11.316Z,8.05
2018-07-11T04:09:39.446Z,7.58
2018-07-11T04:12:08.316Z,11.50
2018-07-11T04:14:37.624Z,8.33
2018-07-11T04:17:06.200Z,8.08
2018-07-11T04:19:34.481Z,9.30
2018-07-11T04:22:02.868Z,7.60
2018-07-11T04:24:31.405Z,7.33
2018-07-11T04:27:00.006Z,7.78
2018-07-11T04:29:28.145Z,6.53
2018-07-11T04:31:56.270Z,9.48
2018-07-11T04:34:24.823Z,7.58
2018-07-11T04:36:53.213Z,7.83
2018-07-11T04:39:21.924Z,7.87
2018-07-11T04:41:50.073Z,7.37
2018-07-11T04:44:18.574Z,7.78
2018-07-11T04:46:46.983Z,8.38
2018-07-11T04:49:15.175Z,7.53
2018-07-11T04:51:43.501Z,7.05
2018-07-11T04:54:11.849Z,8.40
2018-07-11T04:56:40.353Z,6.45
2018-07-11T04:59:09.223Z,6.47
2018-07-11T05:01:37.451Z,9.33
2018-07-11T05:04:05.818Z,7.93
2018-07-11T05:06:34.138Z,8.10
2018-07-11T05:09:02.959Z,9.60
2018-07-11T05:11:31.683Z,11.35
2018-07-11T05:13:59.837Z,10.18
2018-07-11T05:16:28.421Z,8.58
2018-07-11T05:18:56.608Z,12.73
2018-07-11T05:21:24.630Z,9.88
2018-07-11T05:23:53.673Z,8.60
2018-07-11T05:26:22.662Z,8.90
2018-07-11T05:28:51.559Z,10.40
2018-07-11T05:31:19.844Z,7.80
2018-07-11T05:33:48.385Z,10.50
2018-07-11T05:36:16.511Z,7.95
2018-07-11T05:38:44.969Z,8.50
2018-07-11T05:41:13.662Z,8.33
2018-07-11T05:43:42.144Z,8.27
2018-07-11T05:46:10.494Z,7.87
2018-07-11T05:48:38.759Z,8.55
2018-07-11T05:51:06.789Z,8.90
2018-07-11T05:53:35.246Z,8.20
2018-07-11T05:56:03.854Z,10.48
2018-07-11T05:58:31.977Z,7.95
2018-07-11T06:01:00.131Z,9.10
2018-07-11T06:03:28.949Z,6.95
2018-07-11T06:05:57.194Z,12.27
2018-07-11T06:08:25.634Z,8.93
2018-07-11T06:10:54.038Z,9.68
2018-07-11T06:13:22.494Z,7.60
2018-07-11T06:15:51.551Z,8.05
2018-07-11T06:18:20.871Z,7.75
2018-07-11T06:20:49.405Z,12.63
2018-07-11T06:23:17.942Z,7.33
2018-07-11T06:25:46.073Z,7.90
2018-07-11T06:28:14.150Z,10.08
2018-07-11T06:30:42.181Z,7.80
2018-07-11T06:33:10.454Z,8.33
2018-07-11T06:35:39.023Z,8.40
2018-07-11T06:38:07.404Z,10.13
2018-07-11T06:40:35.413Z,8.70
2018-07-11T06:43:03.489Z,13.28
2018-07-11T06:45:32.026Z,10.90
2018-07-11T06:48:01.027Z,8.63
2018-07-11T06:50:29.498Z,10.15
2018-07-11T06:52:58.086Z,7.30
2018-07-11T06:55:26.230Z,11.47
2018-07-11T06:57:54.801Z,9.00
2018-07-11T07:00:23.221Z,7.78
2018-07-11T07:02:52.165Z,8.73
2018-07-11T07:05:20.594Z,6.83
2018-07-11T07:07:49.177Z,10.90
2018-07-11T07:10:17.214Z,6.95
2018-07-11T07:12:45.525Z,8.30
2018-07-11T07:15:13.551Z,8.23
2018-07-11T07:17:41.907Z,9.03
2018-07-11T07:20:10.347Z,10.13
2018-07-11T07:22:38.421Z,6.45
2018-07-11T07:25:07.111Z,7.20
2018-07-11T07:27:35.312Z,14.65
2018-07-11T07:30:03.775Z,8.80
2018-07-11T07:32:32.990Z,7.30
2018-07-11T07:35:01.875Z,6.80
2018-07-11T07:37:30.347Z,6.50
2018-07-11T07:39:58.414Z,7.25
2018-07-11T07:42:27.070Z,6.78
2018-07-11T07:44:56.102Z,6.30
2018-07-11T07:47:29.697Z,6.17
2018-07-11T07:49:57.894Z,6.00
2018-07-11T07:52:25.997Z,7.78
2018-07-11T07:54:54.436Z,5.65
2018-07-11T07:57:22.850Z,6.67
2018-07-11T07:59:51.054Z,6.92
2018-07-11T08:02:20.115Z,5.67
2018-07-11T08:04:49.070Z,9.08
2018-07-11T08:07:17.259Z,5.80
2018-07-11T08:09:45.514Z,4.95
2018-07-11T08:12:14.182Z,5.28
2018-07-11T08:14:42.705Z,6.67
2018-07-11T08:17:11.251Z,5.50
2018-07-11T08:19:39.758Z,5.30
2018-07-11T08:22:13.634Z,4.80
2018-07-11T08:24:47.502Z,7.60
2018-07-11T08:27:21.130Z,4.92
2018-07-11T08:29:54.974Z,5.00
2018-07-11T08:32:28.701Z,4.50
2018-07-11T08:35:06.350Z,4.40
2018-07-11T08:37:39.654Z,8.00
2018-07-11T08:41:12.574Z,5.70
2018-07-11T08:43:46.386Z,5.10
2018-07-11T08:46:21.417Z,7.33
2018-07-11T08:48:55.224Z,4.78
2018-07-11T08:51:29.566Z,5.60
2018-07-11T08:54:03.849Z,6.60
2018-07-11T08:56:49.526Z,6.60
2018-07-11T09:01:30.700Z,5.45
2018-07-11T09:04:04.430Z,5.15
2018-07-11T09:06:46.580Z,5.90
2018-07-11T09:09:20.549Z,5.30
2018-07-11T09:12:25.080Z,4.97
2018-07-11T09:14:59.238Z,6.20
2018-07-11T09:17:33.305Z,5.25
2018-07-11T09:20:07.014Z,6.40
2018-07-11T09:22:42.626Z,5.83
2018-07-11T09:25:11.787Z,5.87
2018-07-11T09:27:40.450Z,9.40
2018-07-11T09:30:09.029Z,7.07
2018-07-11T09:32:37.045Z,8.50
2018-07-11T09:35:05.697Z,6.05
2018-07-11T09:37:34.358Z,6.85
2018-07-11T09:40:03.031Z,8.67
2018-07-11T09:42:31.563Z,7.20
2018-07-11T09:45:00.229Z,5.78
2018-07-11T09:47:29.806Z,5.92
2018-07-11T09:49:58.409Z,6.47
2018-07-11T09:52:26.782Z,7.30
2018-07-11T09:54:54.955Z,6.40
2018-07-11T09:57:24.061Z,7.50
2018-07-11T09:59:52.441Z,7.97
2018-07-11T10:02:20.944Z,8.85
2018-07-11T10:04:49.212Z,6.20
2018-07-11T10:07:17.768Z,6.40
2018-07-11T10:09:46.622Z,6.37
2018-07-11T10:12:14.854Z,6.67
2018-07-11T10:14:42.948Z,6.87
2018-07-11T10:17:11.269Z,6.62
2018-07-11T10:19:39.379Z,6.22
2018-07-11T10:22:08.067Z,7.22
2018-07-11T10:24:36.446Z,6.15
2018-07-11T10:27:04.574Z,5.67
2018-07-11T10:29:33.100Z,5.58
2018-07-11T10:32:01.691Z,6.03
2018-07-11T10:34:30.097Z,5.95
2018-07-11T10:36:58.341Z,6.00
2018-07-11T10:39:26.915Z,5.83
2018-07-11T10:41:55.436Z,6.03
2018-07-11T10:44:23.991Z,6.90
2018-07-11T10:46:56.906Z,6.83
2018-07-11T10:49:25.014Z,7.13
2018-07-11T10:51:53.173Z,7.50
2018-07-11T10:54:21.645Z,8.60
2018-07-11T10:56:50.245Z,5.60
2018-07-11T10:59:18.870Z,8.10
2018-07-11T11:01:47.664Z,5.33
2018-07-11T11:04:18.807Z,6.42
2018-07-11T11:06:47.290Z,5.80
2018-07-11T11:09:15.877Z,8.43
2018-07-11T11:11:44.214Z,6.60
2018-07-11T11:14:12.996Z,6.50
2018-07-11T11:16:41.518Z,6.60
2018-07-11T11:19:10.207Z,6.47
2018-07-11T11:21:38.900Z,5.50
2018-07-11T11:24:07.257Z,6.15
2018-07-11T11:26:35.953Z,6.10
2018-07-11T11:29:04.412Z,5.40
2018-07-11T11:31:33.434Z,6.72
2018-07-11T11:34:01.716Z,7.12
2018-07-11T11:36:29.830Z,7.30
2018-07-11T11:38:58.437Z,5.90
2018-07-11T11:41:27.271Z,6.50
2018-07-11T11:43:55.439Z,6.00
2018-07-11T11:46:24.120Z,5.30
2018-07-11T11:48:52.283Z,5.80
2018-07-11T11:51:20.858Z,6.85
2018-07-11T11:53:49.136Z,5.80
2018-07-11T11:56:17.174Z,6.87
2018-07-11T11:58:45.195Z,8.63
2018-07-11T12:01:13.346Z,8.30
2018-07-11T12:03:42.059Z,6.47
2018-07-11T12:06:10.414Z,6.20
2018-07-11T12:08:38.798Z,6.55
2018-07-11T12:11:07.520Z,5.95
2018-07-11T12:13:36.085Z,5.15
2018-07-11T12:16:05.630Z,5.60
2018-07-11T12:18:35.024Z,5.85
2018-07-11T12:21:07.879Z,6.05
2018-07-11T12:23:36.169Z,8.58
2018-07-11T12:26:07.837Z,5.00
2018-07-11T12:28:36.609Z,4.90
2018-07-11T12:31:05.687Z,6.85
2018-07-11T12:33:34.385Z,4.80
2018-07-11T12:36:03.273Z,5.40
2018-07-11T12:38:31.446Z,5.43
2018-07-11T12:40:59.842Z,5.60
2018-07-11T12:43:28.648Z,6.10
2018-07-11T12:45:57.365Z,7.00
2018-07-11T12:48:31.731Z,4.80
2018-07-11T12:51:00.146Z,6.12
2018-07-11T12:53:28.801Z,8.53
2018-07-11T12:55:56.958Z,5.90
2018-07-11T12:58:25.512Z,6.60
2018-07-11T13:00:54.139Z,7.55
2018-07-11T13:03:22.997Z,6.58
2018-07-11T13:05:52.735Z,6.00
2018-07-11T13:08:21.881Z,6.17
2018-07-11T13:10:50.441Z,7.72
2018-07-11T13:13:19.149Z,6.55
2018-07-11T13:15:47.256Z,6.97
2018-07-11T13:18:15.772Z,9.18
2018-07-11T13:20:44.119Z,6.50
2018-07-11T13:23:13.134Z,5.60
2018-07-11T13:25:42.070Z,5.70
2018-07-11T13:28:10.226Z,7.58
2018-07-11T13:30:38.554Z,5.92
2018-07-11T13:33:07.003Z,7.58
2018-07-11T13:35:36.077Z,6.58
2018-07-11T13:38:05.073Z,6.30
2018-07-11T13:40:33.718Z,8.38
2018-07-11T13:43:02.679Z,11.53
2018-07-11T13:45:31.419Z,8.35
2018-07-11T13:48:01.513Z,9.18
2018-07-11T13:50:30.435Z,9.58
2018-07-11T13:53:00.400Z,6.75
2018-07-11T13:55:29.143Z,8.30
2018-07-11T13:57:58.203Z,16.85
2018-07-11T14:00:27.109Z,11.45
2018-07-11T14:02:55.241Z,8.97
2018-07-11T14:05:23.658Z,9.27
2018-07-11T14:07:51.747Z,7.33
2018-07-11T14:10:20.341Z,7.97
2018-07-11T14:12:48.523Z,9.75
2018-07-11T14:15:16.818Z,12.63
2018-07-11T14:17:44.993Z,12.93
2018-07-11T14:20:13.100Z,12.50
2018-07-11T14:22:41.955Z,11.20
2018-07-11T14:25:10.406Z,10.00
2018-07-11T14:27:41.906Z,9.53
2018-07-11T14:30:10.299Z,10.75
2018-07-11T14:32:40.077Z,9.10
2018-07-11T14:35:08.945Z,7.60
2018-07-11T14:37:40.343Z,9.20
2018-07-11T14:40:08.830Z,10.50
2018-07-11T14:42:37.447Z,8.68
2018-07-11T14:45:05.832Z,8.50
2018-07-11T14:47:39.383Z,9.73
2018-07-11T14:50:08.016Z,6.40
2018-07-11T14:52:36.464Z,8.68
2018-07-11T14:55:05.722Z,7.30
2018-07-11T14:57:34.383Z,8.38
2018-07-11T15:00:02.838Z,7.45
2018-07-11T15:02:31.463Z,8.58
2018-07-11T15:05:00.238Z,7.90
2018-07-11T15:07:28.850Z,8.80
2018-07-11T15:09:57.169Z,7.00
2018-07-11T15:12:26.195Z,11.65
2018-07-11T15:14:54.732Z,8.00
2018-07-11T15:17:23.223Z,7.17
2018-07-11T15:19:52.044Z,8.68
2018-07-11T15:22:20.109Z,9.93
2018-07-11T15:24:48.770Z,10.98
2018-07-11T15:27:27.036Z,9.70
2018-07-11T15:29:57.424Z,8.10
2018-07-11T15:32:26.499Z,8.27
2018-07-11T15:34:55.442Z,6.95
2018-07-11T15:37:24.530Z,10.70
2018-07-11T15:39:53.182Z,8.00
2018-07-11T15:42:22.205Z,15.53
2018-07-11T15:44:50.836Z,8.63
2018-07-11T15:47:21.517Z,8.95
2018-07-11T15:49:50.491Z,9.33
2018-07-11T15:52:19.245Z,9.30
2018-07-11T15:54:47.410Z,13.88
2018-07-11T15:57:15.665Z,9.70
2018-07-11T15:59:48.583Z,7.95
2018-07-11T16:02:17.094Z,13.70
2018-07-11T16:04:46.738Z,10.58
2018-07-11T16:07:15.104Z,10.03
2018-07-11T16:09:59.370Z,9.50
2018-07-11T16:12:28.155Z,11.20
2018-07-11T16:14:57.349Z,10.00
2018-07-11T16:17:25.631Z,11.73
2018-07-11T16:19:53.818Z,7.87
2018-07-11T16:22:22.694Z,8.20
2018-07-11T16:24:51.693Z,9.03
2018-07-11T16:27:20.642Z,9.03
2018-07-11T16:29:49.414Z,9.70
2018-07-11T16:32:18.305Z,15.32
2018-07-11T16:34:46.959Z,15.58
2018-07-11T16:37:16.054Z,11.00
2018-07-11T16:39:44.532Z,11.18
2018-07-11T16:42:13.013Z,13.38
2018-07-11T16:44:41.060Z,12.33
2018-07-11T16:47:09.334Z,10.28
2018-07-11T16:49:39.361Z,12.00
2018-07-11T16:52:07.822Z,9.93
2018-07-11T16:54:36.090Z,11.28
2018-07-11T16:57:04.854Z,10.45
2018-07-11T16:59:37.606Z,11.12
2018-07-11T17:02:06.098Z,10.85
2018-07-11T17:04:34.953Z,12.47
2018-07-11T17:07:04.786Z,9.93
2018-07-11T17:09:34.727Z,9.95
2018-07-11T17:12:02.957Z,10.30
2018-07-11T17:14:31.527Z,12.75
2018-07-11T17:17:04.175Z,12.23
2018-07-11T17:19:38.627Z,14.40
2018-07-11T17:22:08.960Z,9.10
2018-07-11T17:24:48.181Z,15.10
2018-07-11T17:27:45.460Z,11.25
2018-07-11T17:30:14.447Z,8.85
2018-07-11T17:32:43.447Z,10.38
2018-07-11T17:35:12.864Z,8.25
2018-07-11T17:37:44.634Z,11.30
2018-07-11T17:40:13.362Z,9.05
2018-07-11T17:42:44.080Z,10.72
2018-07-11T17:45:19.366Z,10.60
2018-07-11T17:47:55.173Z,10.72
2018-07-11T17:50:27.618Z,11.40
2018-07-11T17:53:31.723Z,11.63
2018-07-11T17:56:05.807Z,13.03
2018-07-11T17:58:42.606Z,10.10
2018-07-11T18:01:13.781Z,11.57
2018-07-11T18:03:49.242Z,12.15
2018-07-11T18:06:22.994Z,9.43
2018-07-11T18:08:57.082Z,13.08
2018-07-11T18:11:30.206Z,10.30
2018-07-11T18:13:59.056Z,10.70
2018-07-11T18:16:32.672Z,12.17
2018-07-11T18:19:10.757Z,10.63
2018-07-11T18:21:43.226Z,11.90
2018-07-11T18:24:13.997Z,12.05
2018-07-11T18:26:46.649Z,12.03
2018-07-11T18:29:20.617Z,13.38
2018-07-11T18:31:54.602Z,12.60
2018-07-11T18:34:35.874Z,12.07
2018-07-11T18:37:10.003Z,11.57
2018-07-11T18:39:42.734Z,9.45
2018-07-11T18:42:44.066Z,12.18
2018-07-11T18:45:15.952Z,13.50
2018-07-11T18:49:52.100Z,9.35
2018-07-11T18:52:23.681Z,11.28
2018-07-11T18:54:58.156Z,9.90
2018-07-11T18:57:30.339Z,9.68
2018-07-11T19:00:04.056Z,9.90
2018-07-11T19:02:38.538Z,11.60
2018-07-11T19:05:10.852Z,11.10
2018-07-11T19:07:42.432Z,13.88
2018-07-11T19:10:15.052Z,11.73
2018-07-11T19:12:48.098Z,10.48
2018-07-11T19:15:21.340Z,13.93
2018-07-11T19:18:04.926Z,12.82
2018-07-11T19:20:38.471Z,12.55
2018-07-11T19:24:13.936Z,12.20
2018-07-11T19:27:21.271Z,11.60
2018-07-11T19:29:57.593Z,11.00
2018-07-11T19:33:02.022Z,15.70
2018-07-11T19:35:37.082Z,18.57
2018-07-11T19:38:12.589Z,15.28
2018-07-11T19:40:50.787Z,15.58
2018-07-11T19:43:28.829Z,14.47
2018-07-11T19:46:06.707Z,22.37
2018-07-11T19:48:44.571Z,17.85
2018-07-11T19:51:16.554Z,15.63
2018-07-11T19:53:51.218Z,15.88
2018-07-11T19:56:24.029Z,15.55
2018-07-11T19:58:52.481Z,18.23
2018-07-11T20:01:20.908Z,20.80
2018-07-11T20:03:49.630Z,17.17
2018-07-11T20:06:17.771Z,16.43
2018-07-11T20:08:46.046Z,17.77
2018-07-11T20:11:14.239Z,18.37
2018-07-11T20:13:42.374Z,14.50
2018-07-11T20:16:10.429Z,18.13
2018-07-11T20:18:38.468Z,17.10
2018-07-11T20:21:06.573Z,13.53
2018-07-11T20:23:34.873Z,13.98
2018-07-11T20:26:03.087Z,13.32
2018-07-11T20:28:31.479Z,13.20
2018-07-11T20:30:59.793Z,16.90
2018-07-11T20:33:28.122Z,17.87
2018-07-11T20:35:56.199Z,17.75
2018-07-11T20:38:24.638Z,18.60
2018-07-11T20:40:53.203Z,23.38
2018-07-11T20:43:21.419Z,18.37
2018-07-11T20:45:49.627Z,20.23
2018-07-11T20:48:18.225Z,21.03
2018-07-11T20:50:46.710Z,15.85
2018-07-11T20:53:14.986Z,17.62
2018-07-11T20:55:43.209Z,18.67
2018-07-11T20:58:16.844Z,23.23
2018-07-11T21:00:50.894Z,20.12
2018-07-11T21:03:21.441Z,20.72
2018-07-11T21:05:55.649Z,22.48
2018-07-11T21:08:30.071Z,22.13
2018-07-11T21:13:09.193Z,21.53
2018-07-11T21:15:48.126Z,25.68
2018-07-11T21:18:48.461Z,23.30
2018-07-11T21:21:17.056Z,27.42
2018-07-11T21:23:45.305Z,27.17
2018-07-11T21:26:13.697Z,29.67
2018-07-11T21:28:41.949Z,27.75
2018-07-11T21:31:10.142Z,31.50
2018-07-11T21:33:38.179Z,32.70
2018-07-11T21:36:06.558Z,30.82
2018-07-11T21:38:35.098Z,31.07
2018-07-11T21:41:03.282Z,30.48
2018-07-11T21:43:32.623Z,31.00
2018-07-11T21:46:01.277Z,32.33
2018-07-11T21:48:29.473Z,29.42
2018-07-11T21:50:57.753Z,27.50
2018-07-11T21:53:25.982Z,27.52
2018-07-11T21:55:54.048Z,26.80
2018-07-11T21:58:22.310Z,28.35
2018-07-11T22:00:50.998Z,25.65
2018-07-11T22:03:19.102Z,26.85
2018-07-11T22:05:47.378Z,26.80
2018-07-11T22:08:15.745Z,25.17
2018-07-11T22:10:44.482Z,21.85
2018-07-11T22:13:13.317Z,25.95
2018-07-11T22:15:41.701Z,27.98
2018-07-11T22:18:15.529Z,29.05
2018-07-11T22:20:43.150Z,28.42
2018-07-11T22:23:10.395Z,27.37
2018-07-11T22:25:37.957Z,30.35
2018-07-11T22:28:05.625Z,28.27
2018-07-11T22:30:32.860Z,29.70
2018-07-11T22:33:00.255Z,27.75
2018-07-11T22:35:27.795Z,33.73
2018-07-11T22:37:55.354Z,37.98
2018-07-11T22:40:22.715Z,34.18
2018-07-11T22:42:50.374Z,27.70
2018-07-11T22:45:17.930Z,29.37
2018-07-11T22:47:45.344Z,30.20
2018-07-11T22:50:12.650Z,28.35
2018-07-11T22:52:39.988Z,29.73
2018-07-11T22:55:07.149Z,24.50
2018-07-11T22:57:34.474Z,26.40
2018-07-11T23:00:01.735Z,26.45
2018-07-11T23:02:28.966Z,34.05
2018-07-11T23:04:56.575Z,30.85
2018-07-11T23:07:23.787Z,37.88
2018-07-11T23:09:51.018Z,31.33
2018-07-11T23:12:18.239Z,30.23
2018-07-11T23:14:45.790Z,36.38
2018-07-11T23:17:13.238Z,27.07
2018-07-11T23:19:40.718Z,33.23
2018-07-11T23:22:08.261Z,28.45
2018-07-11T23:24:35.630Z,31.80
2018-07-11T23:27:03.704Z,29.72
2018-07-11T23:29:31.191Z,32.60
2018-07-11T23:31:58.500Z,38.48
2018-07-11T23:34:26.063Z,31.20
2018-07-11T23:36:53.590Z,30.10
2018-07-11T23:39:20.848Z,32.03
2018-07-11T23:41:48.079Z,33.83
2018-07-11T23:44:15.394Z,33.18
2018-07-11T23:46:42.846Z,34.67
2018-07-11T23:49:10.363Z,36.88
2018-07-11T23:51:37.850Z,34.23
2018-07-11T23:54:05.418Z,39.67
2018-07-11T23:56:32.976Z,38.35
2018-07-11T23:59:00.257Z,33.45
